createdAt,value
2022-12-18T00:01:34.096Z,81.86
2022-12-18T00:04:03.106Z,82.34
2022-12-18T00:06:30.753Z,82.27
2022-12-18T00:09:04.357Z,82.03
2022-12-18T00:11:38.358Z,82.07
2022-12-18T00:14:05.006Z,81.53
2022-12-18T00:16:38.083Z,81.89
2022-12-18T00:19:05.787Z,81.74
2022-12-18T00:21:33.814Z,82.23
2022-12-18T00:24:01.289Z,82.37
2022-12-18T00:26:57.561Z,82.11
2022-12-18T00:29:27.281Z,82.06
2022-12-18T00:31:53.944Z,82.26
2022-12-18T00:34:29.253Z,82.18
2022-12-18T00:37:04.365Z,82.17
2022-12-18T00:39:31.001Z,82.36
2022-12-18T00:42:22.863Z,82.01
2022-12-18T00:44:49.472Z,82.12
2022-12-18T00:47:18.950Z,82.39
2022-12-18T00:49:46.991Z,82.03
2022-12-18T00:52:13.658Z,82.13
2022-12-18T00:54:40.281Z,82.13
2022-12-18T00:57:06.884Z,82.05
2022-12-18T00:59:33.514Z,82.39
2022-12-18T01:02:00.271Z,82.33
2022-12-18T01:04:27.028Z,82.02
2022-12-18T01:06:53.697Z,82.36
2022-12-18T01:09:20.323Z,82.45
2022-12-18T01:11:49.862Z,82.40
2022-12-18T01:14:16.981Z,82.42
2022-12-18T01:16:43.621Z,82.21
2022-12-18T01:19:10.518Z,82.48
2022-12-18T01:21:37.291Z,82.34
2022-12-18T01:24:07.081Z,82.52
2022-12-18T01:26:40.060Z,82.60
2022-12-18T01:29:09.542Z,82.54
2022-12-18T01:31:36.390Z,82.31
2022-12-18T01:34:06.986Z,82.57
2022-12-18T01:36:36.994Z,82.51
2022-12-18T01:39:10.684Z,82.36
2022-12-18T01:41:56.098Z,82.64
2022-12-18T01:44:50.759Z,82.56
2022-12-18T01:47:23.423Z,82.46
2022-12-18T01:49:50.470Z,82.45
2022-12-18T01:52:18.334Z,82.25
2022-12-18T01:54:46.392Z,82.59
2022-12-18T01:57:13.143Z,82.66
2022-12-18T01:59:42.104Z,82.56
2022-12-18T02:02:09.544Z,82.42
2022-12-18T02:04:36.464Z,82.45
2022-12-18T02:07:13.155Z,82.50
2022-12-18T02:10:03.785Z,82.58
2022-12-18T02:13:01.320Z,82.84
2022-12-18T02:16:08.037Z,82.50
2022-12-18T02:18:41.643Z,82.73
2022-12-18T02:21:27.141Z,82.38
2022-12-18T02:24:36.545Z,82.71
2022-12-18T02:27:07.095Z,82.59
2022-12-18T02:29:45.698Z,82.60
2022-12-18T02:32:17.741Z,82.54
2022-12-18T02:34:47.977Z,82.20
2022-12-18T02:37:19.062Z,82.48
2022-12-18T02:39:49.270Z,82.43
2022-12-18T02:42:17.414Z,82.39
2022-12-18T02:44:49.432Z,82.67
2022-12-18T02:47:20.401Z,82.56
2022-12-18T02:49:53.081Z,82.39
2022-12-18T02:52:31.695Z,82.43
2022-12-18T02:55:35.874Z,82.41
2022-12-18T02:58:17.657Z,82.32
2022-12-18T03:00:54.214Z,82.49
2022-12-18T03:03:31.151Z,82.30
2022-12-18T03:06:05.193Z,82.33
2022-12-18T03:08:46.147Z,82.27
2022-12-18T03:11:14.502Z,82.27
2022-12-18T03:13:48.897Z,82.42
2022-12-18T03:16:20.626Z,82.50
2022-12-18T03:18:55.773Z,82.37
2022-12-18T03:21:31.738Z,82.56
2022-12-18T03:23:58.373Z,82.51
2022-12-18T03:26:28.118Z,82.36
2022-12-18T03:29:01.006Z,82.43
2022-12-18T03:31:31.534Z,82.48
2022-12-18T03:34:05.973Z,82.34
2022-12-18T03:36:33.112Z,82.46
2022-12-18T03:39:00.158Z,82.23
2022-12-18T03:41:34.730Z,82.44
2022-12-18T03:44:35.386Z,82.47
2022-12-18T03:47:15.886Z,82.40
2022-12-18T03:50:12.606Z,82.36
2022-12-18T03:52:47.444Z,82.54
2022-12-18T03:55:14.274Z,82.48
2022-12-18T03:57:43.442Z,82.11
2022-12-18T04:00:14.096Z,82.38
2022-12-18T04:02:49.104Z,82.43
2022-12-18T04:05:16.941Z,82.43
2022-12-18T04:07:45.814Z,81.85
2022-12-18T04:10:14.056Z,82.22
2022-12-18T04:12:40.750Z,82.26
2022-12-18T04:15:10.217Z,82.34
2022-12-18T04:17:36.942Z,82.33
2022-12-18T04:20:04.260Z,81.90
2022-12-18T04:22:30.862Z,82.33
2022-12-18T04:24:57.512Z,82.24
2022-12-18T04:27:24.121Z,82.03
2022-12-18T04:29:50.862Z,82.21
2022-12-18T04:32:17.483Z,82.25
2022-12-18T04:34:44.137Z,82.49
2022-12-18T04:37:10.886Z,82.21
2022-12-18T04:39:37.514Z,82.14
2022-12-18T04:42:04.266Z,82.03
2022-12-18T04:44:30.906Z,82.23
2022-12-18T04:46:57.882Z,82.22
2022-12-18T04:49:24.609Z,81.91
2022-12-18T04:51:51.279Z,81.91
2022-12-18T04:54:18.026Z,81.67
2022-12-18T04:56:44.660Z,82.14
2022-12-18T04:59:11.268Z,82.00
2022-12-18T05:01:37.964Z,82.04
2022-12-18T05:04:04.956Z,81.85
2022-12-18T05:06:31.676Z,81.82
2022-12-18T05:08:58.716Z,81.82
2022-12-18T05:11:25.414Z,81.95
2022-12-18T05:13:52.073Z,82.02
2022-12-18T05:16:18.697Z,81.76
2022-12-18T05:18:46.509Z,82.07
2022-12-18T05:21:13.194Z,81.79
2022-12-18T05:23:40.195Z,82.15
2022-12-18T05:26:08.894Z,81.84
2022-12-18T05:28:36.846Z,81.99
2022-12-18T05:31:05.379Z,82.15
2022-12-18T05:33:35.296Z,81.88
2022-12-18T05:36:03.723Z,81.96
2022-12-18T05:38:32.055Z,81.80
2022-12-18T05:41:01.918Z,81.93
2022-12-18T05:43:29.224Z,82.03
2022-12-18T05:45:55.869Z,82.10
2022-12-18T05:48:22.976Z,81.95
2022-12-18T05:50:51.145Z,81.95
2022-12-18T05:53:20.416Z,82.09
2022-12-18T05:55:47.863Z,82.00
2022-12-18T05:58:15.669Z,82.19
2022-12-18T06:00:45.072Z,81.88
2022-12-18T06:03:13.246Z,81.90
2022-12-18T06:05:45.892Z,82.04
2022-12-18T06:08:14.272Z,81.77
2022-12-18T06:10:41.987Z,81.81
2022-12-18T06:13:08.758Z,81.92
2022-12-18T06:15:37.770Z,81.81
2022-12-18T06:18:04.665Z,81.79
2022-12-18T06:20:33.663Z,81.88
2022-12-18T06:23:01.273Z,81.66
2022-12-18T06:25:29.756Z,81.80
2022-12-18T06:27:59.700Z,82.00
2022-12-18T06:30:27.182Z,81.75
2022-12-18T06:32:56.531Z,81.83
2022-12-18T06:35:24.108Z,81.65
2022-12-18T06:37:50.744Z,81.46
2022-12-18T06:40:23.318Z,81.54
2022-12-18T06:42:51.072Z,81.74
2022-12-18T06:45:17.785Z,81.75
2022-12-18T06:47:44.816Z,81.26
2022-12-18T06:50:12.957Z,81.79
2022-12-18T06:52:41.278Z,81.74
2022-12-18T06:55:12.095Z,81.67
2022-12-18T06:57:39.667Z,81.64
2022-12-18T07:00:07.227Z,81.59
2022-12-18T07:02:34.260Z,81.75
2022-12-18T07:05:06.091Z,81.45
2022-12-18T07:07:36.217Z,81.52
2022-12-18T07:10:03.256Z,81.40
2022-12-18T07:12:29.883Z,81.65
2022-12-18T07:14:56.601Z,81.85
2022-12-18T07:17:23.275Z,81.40
2022-12-18T07:19:49.896Z,81.64
2022-12-18T07:22:16.489Z,81.74
2022-12-18T07:24:43.118Z,81.77
2022-12-18T07:27:10.406Z,81.69
2022-12-18T07:29:37.221Z,81.90
2022-12-18T07:32:04.863Z,81.58
2022-12-18T07:34:31.985Z,81.56
2022-12-18T07:36:58.925Z,81.61
2022-12-18T07:39:25.544Z,81.77
2022-12-18T07:42:10.319Z,81.59
2022-12-18T07:44:37.698Z,81.71
2022-12-18T07:47:09.015Z,81.54
2022-12-18T07:49:38.327Z,81.50
2022-12-18T07:52:05.041Z,81.41
2022-12-18T07:54:31.666Z,81.88
2022-12-18T07:56:58.345Z,81.37
2022-12-18T07:59:25.263Z,81.55
2022-12-18T08:01:51.955Z,81.73
2022-12-18T08:04:18.760Z,81.62
2022-12-18T08:06:48.079Z,81.69
2022-12-18T08:09:15.232Z,81.62
2022-12-18T08:11:42.106Z,81.72
2022-12-18T08:14:08.834Z,81.76
2022-12-18T08:16:35.606Z,81.82
2022-12-18T08:19:02.356Z,81.66
2022-12-18T08:21:31.575Z,81.70
2022-12-18T08:24:00.515Z,81.82
2022-12-18T08:26:29.849Z,81.45
2022-12-18T08:28:58.129Z,81.62
2022-12-18T08:31:28.846Z,81.78
2022-12-18T08:33:56.509Z,81.85
2022-12-18T08:36:27.509Z,81.75
2022-12-18T08:38:54.688Z,81.52
2022-12-18T08:41:21.830Z,81.63
2022-12-18T08:44:07.115Z,81.52
2022-12-18T08:46:38.917Z,81.71
2022-12-18T08:49:09.108Z,81.64
2022-12-18T08:51:38.249Z,81.78
2022-12-18T08:54:06.388Z,81.65
2022-12-18T08:56:40.218Z,81.51
2022-12-18T08:59:19.181Z,81.69
2022-12-18T09:01:47.510Z,81.73
2022-12-18T09:04:15.139Z,81.61
2022-12-18T09:06:42.103Z,81.53
2022-12-18T09:09:08.840Z,81.76
2022-12-18T09:11:35.546Z,81.66
2022-12-18T09:14:03.005Z,81.39
2022-12-18T09:16:32.486Z,81.59
2022-12-18T09:19:00.871Z,81.73
2022-12-18T09:21:30.027Z,81.65
2022-12-18T09:23:57.439Z,81.72
2022-12-18T09:26:24.988Z,81.77
2022-12-18T09:28:52.153Z,81.59
2022-12-18T09:31:21.847Z,81.83
2022-12-18T09:33:48.479Z,81.62
2022-12-18T09:36:21.880Z,81.99
2022-12-18T09:38:48.571Z,81.83
2022-12-18T09:41:39.691Z,81.68
2022-12-18T09:44:24.613Z,81.93
2022-12-18T09:47:10.862Z,81.78
2022-12-18T09:49:45.292Z,81.84
2022-12-18T09:52:25.126Z,81.79
2022-12-18T09:55:06.514Z,81.73
2022-12-18T09:57:36.894Z,81.65
2022-12-18T10:00:29.982Z,81.86
2022-12-18T10:03:15.601Z,81.61
2022-12-18T10:06:37.392Z,81.40
2022-12-18T10:09:23.490Z,81.27
2022-12-18T10:12:19.822Z,81.72
2022-12-18T10:14:56.030Z,81.54
2022-12-18T10:17:37.891Z,81.63
2022-12-18T10:20:17.196Z,81.55
2022-12-18T10:23:16.087Z,81.77
2022-12-18T10:26:03.558Z,81.91
2022-12-18T10:28:37.647Z,81.85
2022-12-18T10:31:26.693Z,81.72
2022-12-18T10:33:56.140Z,81.84
2022-12-18T10:36:25.036Z,81.96
2022-12-18T10:38:52.334Z,81.85
2022-12-18T10:41:19.636Z,82.02
2022-12-18T10:43:49.206Z,81.63
2022-12-18T10:46:21.777Z,81.73
2022-12-18T10:48:53.992Z,81.81
2022-12-18T10:51:32.489Z,81.64
2022-12-18T10:54:04.539Z,81.66
2022-12-18T10:56:37.334Z,81.73
2022-12-18T10:59:10.606Z,81.88
2022-12-18T11:01:56.675Z,81.84
2022-12-18T11:04:29.357Z,81.85
2022-12-18T11:07:08.483Z,81.83
2022-12-18T11:09:40.978Z,81.61
2022-12-18T11:12:20.303Z,81.97
2022-12-18T11:14:52.768Z,81.90
2022-12-18T11:17:36.604Z,81.82
2022-12-18T11:20:07.985Z,82.00
2022-12-18T11:22:37.611Z,81.97
2022-12-18T11:25:32.572Z,81.99
2022-12-18T11:28:03.492Z,81.54
2022-12-18T11:30:32.849Z,82.03
2022-12-18T11:33:12.358Z,81.72
2022-12-18T11:36:06.198Z,81.71
2022-12-18T11:38:38.472Z,81.77
2022-12-18T11:41:16.283Z,81.86
2022-12-18T11:43:53.829Z,81.99
2022-12-18T11:46:31.693Z,82.10
2022-12-18T11:49:13.479Z,82.07
2022-12-18T11:51:56.587Z,82.04
2022-12-18T11:54:23.308Z,81.95
2022-12-18T11:56:59.673Z,81.91
2022-12-18T11:59:44.558Z,82.07
2022-12-18T12:02:33.048Z,81.76
2022-12-18T12:05:18.627Z,82.13
2022-12-18T12:08:22.447Z,82.11
2022-12-18T12:11:04.038Z,81.60
2022-12-18T12:13:39.776Z,81.79
2022-12-18T12:16:25.204Z,82.03
2022-12-18T12:19:05.442Z,82.32
2022-12-18T12:21:47.828Z,81.96
2022-12-18T12:24:54.688Z,81.85
2022-12-18T12:27:41.991Z,81.53
2022-12-18T12:30:22.378Z,82.14
2022-12-18T12:32:54.921Z,82.23
2022-12-18T12:35:35.276Z,82.26
2022-12-18T12:38:04.811Z,82.13
2022-12-18T12:40:53.964Z,81.76
2022-12-18T12:43:26.681Z,82.00
2022-12-18T12:46:00.283Z,81.96
2022-12-18T12:48:36.845Z,82.11
2022-12-18T12:51:11.304Z,82.16
2022-12-18T12:53:40.691Z,82.00
2022-12-18T12:56:09.708Z,82.01
2022-12-18T12:59:05.291Z,81.90
2022-12-18T13:01:54.270Z,82.32
2022-12-18T13:05:18.967Z,82.29
2022-12-18T13:07:58.537Z,82.30
2022-12-18T13:10:33.074Z,82.27
2022-12-18T13:12:59.679Z,81.78
2022-12-18T13:15:32.365Z,82.13
2022-12-18T13:18:11.599Z,82.04
2022-12-18T13:20:41.576Z,82.50
2022-12-18T13:23:30.054Z,82.01
2022-12-18T13:26:10.802Z,81.71
2022-12-18T13:28:46.935Z,81.93
2022-12-18T13:31:42.602Z,81.82
2022-12-18T13:34:29.327Z,81.97
2022-12-18T13:37:17.818Z,81.96
2022-12-18T13:39:44.786Z,82.08
2022-12-18T13:42:31.374Z,82.43
2022-12-18T13:44:58.948Z,81.96
2022-12-18T13:47:36.221Z,82.07
2022-12-18T13:50:11.792Z,82.35
2022-12-18T13:52:40.450Z,82.20
2022-12-18T13:55:17.154Z,82.30
2022-12-18T13:57:44.038Z,82.38
2022-12-18T14:00:22.753Z,82.45
2022-12-18T14:02:50.547Z,82.29
2022-12-18T14:05:32.512Z,82.30
2022-12-18T14:08:09.630Z,82.19
2022-12-18T14:10:48.443Z,82.38
2022-12-18T14:13:42.077Z,82.60
2022-12-18T14:16:20.281Z,82.05
2022-12-18T14:19:03.271Z,82.22
2022-12-18T14:21:38.946Z,82.33
2022-12-18T14:24:10.171Z,82.01
2022-12-18T14:26:36.801Z,82.32
2022-12-18T14:29:23.480Z,82.12
2022-12-18T14:32:20.987Z,82.15
2022-12-18T14:34:52.743Z,82.13
2022-12-18T14:37:23.941Z,82.20
2022-12-18T14:40:07.305Z,82.44
2022-12-18T14:42:37.749Z,82.44
2022-12-18T14:45:41.492Z,82.00
2022-12-18T14:48:13.824Z,82.50
2022-12-18T14:50:42.579Z,82.39
2022-12-18T14:53:35.691Z,82.55
2022-12-18T14:56:03.549Z,82.45
2022-12-18T14:58:30.335Z,82.48
2022-12-18T15:00:57.184Z,82.37
2022-12-18T15:03:24.003Z,82.34
2022-12-18T15:05:51.819Z,82.36
2022-12-18T15:08:50.821Z,82.56
2022-12-18T15:11:45.400Z,82.32
2022-12-18T15:14:35.959Z,82.53
2022-12-18T15:17:21.051Z,82.46
2022-12-18T15:19:51.925Z,82.39
2022-12-18T15:22:38.686Z,82.23
2022-12-18T15:25:27.932Z,82.69
2022-12-18T15:27:54.732Z,82.06
2022-12-18T15:30:23.733Z,82.16
2022-12-18T15:32:51.413Z,82.25
2022-12-18T15:35:21.456Z,82.45
2022-12-18T15:37:48.444Z,82.41
2022-12-18T15:40:25.291Z,82.43
2022-12-18T15:43:13.795Z,82.25
2022-12-18T15:45:40.827Z,82.32
2022-12-18T15:48:22.192Z,82.19
2022-12-18T15:50:50.900Z,82.10
2022-12-18T15:53:17.668Z,82.23
2022-12-18T15:56:02.868Z,82.27
2022-12-18T15:58:29.617Z,82.53
2022-12-18T16:00:59.644Z,82.17
2022-12-18T16:03:26.458Z,82.26
2022-12-18T16:05:53.144Z,82.24
2022-12-18T16:08:20.899Z,82.11
2022-12-18T16:10:47.657Z,82.29
2022-12-18T16:13:18.941Z,82.57
2022-12-18T16:15:45.807Z,82.41
2022-12-18T16:18:12.517Z,82.03
2022-12-18T16:20:39.686Z,82.15
2022-12-18T16:23:06.334Z,82.02
2022-12-18T16:25:33.153Z,82.17
2022-12-18T16:27:59.848Z,82.23
2022-12-18T16:30:30.213Z,82.13
2022-12-18T16:33:02.493Z,82.07
2022-12-18T16:35:29.228Z,82.09
2022-12-18T16:37:55.892Z,81.81
2022-12-18T16:40:24.606Z,82.25
2022-12-18T16:42:51.289Z,81.91
2022-12-18T16:45:19.170Z,81.92
2022-12-18T16:47:46.820Z,81.90
2022-12-18T16:50:13.710Z,81.96
2022-12-18T16:52:41.633Z,81.69
2022-12-18T16:55:09.227Z,81.91
2022-12-18T16:57:36.142Z,81.92
2022-12-18T17:00:05.947Z,81.85
2022-12-18T17:02:33.755Z,81.80
2022-12-18T17:05:00.792Z,81.67
2022-12-18T17:07:28.564Z,81.68
2022-12-18T17:09:56.053Z,81.72
2022-12-18T17:12:23.470Z,81.86
2022-12-18T17:14:50.602Z,81.79
2022-12-18T17:17:22.365Z,81.83
2022-12-18T17:19:50.582Z,81.80
2022-12-18T17:22:17.216Z,81.80
2022-12-18T17:24:44.060Z,81.89
2022-12-18T17:27:10.695Z,81.79
2022-12-18T17:29:40.109Z,81.46
2022-12-18T17:32:12.138Z,82.01
2022-12-18T17:34:38.930Z,81.78
2022-12-18T17:37:05.628Z,81.86
2022-12-18T17:39:33.554Z,81.85
2022-12-18T17:42:01.407Z,81.74
2022-12-18T17:44:28.116Z,81.96
2022-12-18T17:46:54.829Z,81.68
2022-12-18T17:49:21.750Z,81.45
2022-12-18T17:51:49.099Z,81.33
2022-12-18T17:54:15.775Z,81.68
2022-12-18T17:56:42.694Z,81.43
2022-12-18T17:59:09.636Z,81.74
2022-12-18T18:01:42.583Z,81.74
2022-12-18T18:04:11.182Z,81.43
2022-12-18T18:06:39.086Z,81.62
2022-12-18T18:09:08.178Z,81.81
2022-12-18T18:12:00.451Z,81.56
2022-12-18T18:14:27.554Z,81.54
2022-12-18T18:16:54.645Z,81.71
2022-12-18T18:19:24.518Z,81.60
2022-12-18T18:21:52.761Z,81.69
2022-12-18T18:24:23.647Z,81.80
2022-12-18T18:26:50.834Z,81.56
2022-12-18T18:29:24.183Z,81.70
2022-12-18T18:31:53.609Z,81.64
2022-12-18T18:34:29.193Z,81.23
2022-12-18T18:36:56.145Z,81.59
2022-12-18T18:39:23.510Z,81.24
2022-12-18T18:41:50.235Z,81.36
2022-12-18T18:44:18.448Z,81.43
2022-12-18T18:46:45.514Z,81.71
2022-12-18T18:49:13.845Z,81.76
2022-12-18T18:51:41.494Z,81.77
2022-12-18T18:54:08.835Z,81.53
2022-12-18T18:59:23.095Z,81.76
2022-12-18T19:01:58.627Z,81.35
2022-12-18T19:04:25.397Z,81.74
2022-12-18T19:06:52.008Z,81.47
2022-12-18T19:09:19.460Z,81.58
2022-12-18T19:12:04.694Z,81.87
2022-12-18T19:14:31.927Z,81.37
2022-12-18T19:16:58.645Z,81.30
2022-12-18T19:19:27.167Z,81.33
2022-12-18T19:21:53.867Z,81.29
2022-12-18T19:24:22.557Z,81.31
2022-12-18T19:26:49.623Z,81.64
2022-12-18T19:29:16.307Z,81.59
2022-12-18T19:31:43.183Z,81.18
2022-12-18T19:34:09.928Z,81.42
2022-12-18T19:36:38.663Z,81.46
2022-12-18T19:39:23.819Z,81.09
2022-12-18T19:41:52.635Z,81.12
2022-12-18T19:44:19.280Z,81.19
2022-12-18T19:46:49.599Z,81.08
2022-12-18T19:49:18.208Z,80.88
2022-12-18T19:51:45.511Z,81.04
2022-12-18T19:54:17.260Z,80.95
2022-12-18T19:56:45.392Z,80.96
2022-12-18T19:59:12.476Z,80.77
2022-12-18T20:01:41.153Z,80.83
2022-12-18T20:04:08.033Z,80.48
2022-12-18T20:06:46.119Z,80.41
2022-12-18T20:09:12.887Z,80.22
2022-12-18T20:11:42.007Z,79.87
2022-12-18T20:14:10.912Z,80.06
2022-12-18T20:16:37.948Z,80.06
2022-12-18T20:19:05.483Z,79.71
2022-12-18T20:21:32.572Z,79.74
2022-12-18T20:24:00.216Z,79.75
2022-12-18T20:26:27.832Z,79.14
2022-12-18T20:28:55.583Z,79.28
2022-12-18T20:31:22.974Z,79.06
2022-12-18T20:33:49.912Z,79.11
2022-12-18T20:36:23.464Z,78.84
2022-12-18T20:38:57.183Z,78.57
2022-12-18T20:41:26.211Z,78.87
2022-12-18T20:43:57.237Z,78.65
2022-12-18T20:46:24.789Z,78.42
2022-12-18T20:48:51.562Z,78.74
2022-12-18T20:51:20.755Z,78.68
2022-12-18T20:53:48.282Z,78.41
2022-12-18T20:56:21.655Z,78.42
2022-12-18T20:58:49.780Z,78.47
2022-12-18T21:01:19.787Z,78.05
2022-12-18T21:03:47.490Z,78.32
2022-12-18T21:06:16.790Z,78.35
2022-12-18T21:08:43.814Z,78.03
2022-12-18T21:11:45.294Z,78.42
2022-12-18T21:14:18.390Z,78.41
2022-12-18T21:16:46.099Z,78.28
2022-12-18T21:19:15.321Z,78.13
2022-12-18T21:21:42.878Z,78.27
2022-12-18T21:24:10.361Z,78.10
2022-12-18T21:26:44.932Z,77.72
2022-12-18T21:29:15.589Z,77.79
2022-12-18T21:31:42.954Z,77.76
2022-12-18T21:34:16.878Z,77.54
2022-12-18T21:36:43.893Z,77.64
2022-12-18T21:39:10.515Z,77.40
2022-12-18T21:41:56.098Z,77.26
2022-12-18T21:44:23.911Z,77.54
2022-12-18T21:46:55.816Z,77.64
2022-12-18T21:49:27.300Z,77.14
2022-12-18T21:51:56.738Z,77.18
2022-12-18T21:54:24.759Z,77.35
2022-12-18T21:56:56.380Z,77.35
2022-12-18T21:59:29.234Z,77.14
2022-12-18T22:01:58.431Z,77.58
2022-12-18T22:04:26.019Z,77.20
2022-12-18T22:06:53.431Z,77.46
2022-12-18T22:09:23.427Z,77.62
2022-12-18T22:11:51.104Z,77.54
2022-12-18T22:14:18.057Z,77.55
2022-12-18T22:16:45.079Z,77.77
2022-12-18T22:19:12.645Z,77.58
2022-12-18T22:21:43.765Z,77.48
2022-12-18T22:24:18.151Z,77.83
2022-12-18T22:26:46.224Z,77.60
2022-12-18T22:29:42.740Z,77.88
2022-12-18T22:32:16.403Z,77.73
2022-12-18T22:34:43.748Z,78.10
2022-12-18T22:37:12.089Z,78.01
2022-12-18T22:39:38.759Z,77.86
2022-12-18T22:42:05.772Z,78.04
2022-12-18T22:44:32.517Z,78.15
2022-12-18T22:47:06.211Z,78.02
2022-12-18T22:49:34.982Z,78.30
2022-12-18T22:52:03.046Z,78.38
2022-12-18T22:54:29.766Z,78.35
2022-12-18T22:56:56.855Z,78.50
2022-12-18T22:59:23.870Z,78.64
2022-12-18T23:01:54.186Z,78.39
2022-12-18T23:04:29.085Z,78.53
2022-12-18T23:07:05.059Z,78.32
2022-12-18T23:09:32.505Z,78.80
2022-12-18T23:11:59.195Z,78.85
2022-12-18T23:14:25.872Z,78.57
2022-12-18T23:16:53.039Z,78.82
2022-12-18T23:19:20.214Z,78.80
2022-12-18T23:21:47.001Z,78.75
2022-12-18T23:24:13.956Z,79.14
2022-12-18T23:26:40.754Z,79.21
2022-12-18T23:29:08.050Z,79.13
2022-12-18T23:31:39.379Z,79.09
2022-12-18T23:34:07.123Z,79.30
2022-12-18T23:36:38.417Z,79.18
2022-12-18T23:39:25.023Z,79.10
2022-12-18T23:41:58.488Z,79.31
2022-12-18T23:44:25.720Z,79.40
2022-12-18T23:46:52.876Z,79.26
2022-12-18T23:49:19.627Z,79.48
2022-12-18T23:51:46.239Z,79.21
2022-12-18T23:54:12.874Z,79.40
2022-12-18T23:56:39.492Z,79.32
2022-12-18T23:59:06.142Z,79.62
